createdAt,value
2017-12-19T00:01:54.968Z,92.64
2017-12-19T00:04:22.549Z,92.73
2017-12-19T00:06:50.211Z,92.74
2017-12-19T00:09:17.779Z,92.77
2017-12-19T00:11:45.336Z,93.01
2017-12-19T00:14:12.996Z,93.14
2017-12-19T00:16:40.544Z,92.97
2017-12-19T00:19:08.100Z,93.08
2017-12-19T00:21:35.750Z,93.09
2017-12-19T00:24:03.286Z,93.34
2017-12-19T00:26:31.275Z,93.31
2017-12-19T00:28:58.822Z,93.26
2017-12-19T00:31:26.451Z,93.14
2017-12-19T00:33:54.038Z,93.07
2017-12-19T00:36:21.578Z,93.00
2017-12-19T00:38:49.159Z,93.04
2017-12-19T00:41:16.753Z,93.15
2017-12-19T00:43:44.339Z,93.23
2017-12-19T00:46:11.956Z,93.40
2017-12-19T00:48:39.565Z,93.57
2017-12-19T00:51:07.157Z,93.60
2017-12-19T00:53:34.754Z,93.79
2017-12-19T00:56:02.795Z,93.93
2017-12-19T00:58:30.353Z,93.79
2017-12-19T01:00:57.939Z,93.65
2017-12-19T01:03:25.511Z,93.50
2017-12-19T01:05:53.112Z,93.42
2017-12-19T01:08:20.726Z,93.49
2017-12-19T01:10:48.286Z,93.51
2017-12-19T01:13:15.855Z,93.47
2017-12-19T01:15:43.384Z,93.46
2017-12-19T01:18:10.936Z,93.48
2017-12-19T01:20:38.561Z,93.46
2017-12-19T01:23:06.103Z,93.48
2017-12-19T01:25:34.184Z,93.47
2017-12-19T01:28:01.790Z,93.57
2017-12-19T01:30:29.884Z,93.58
2017-12-19T01:32:57.443Z,93.62
2017-12-19T01:35:24.994Z,93.64
2017-12-19T01:37:52.551Z,93.56
2017-12-19T01:40:20.090Z,93.75
2017-12-19T01:42:47.636Z,93.74
2017-12-19T01:45:15.283Z,93.59
2017-12-19T01:47:42.870Z,93.58
2017-12-19T01:50:10.408Z,93.63
2017-12-19T01:52:38.000Z,93.68
2017-12-19T01:55:05.582Z,93.75
2017-12-19T01:57:33.148Z,93.68
2017-12-19T02:00:00.730Z,93.86
2017-12-19T02:02:28.400Z,93.89
2017-12-19T02:04:56.384Z,93.75
2017-12-19T02:07:23.993Z,93.88
2017-12-19T02:09:51.541Z,93.73
2017-12-19T02:12:19.128Z,93.84
2017-12-19T02:14:46.715Z,93.84
2017-12-19T02:17:14.283Z,93.74
2017-12-19T02:19:41.853Z,93.65
2017-12-19T02:22:09.430Z,93.61
2017-12-19T02:24:36.988Z,93.63
2017-12-19T02:27:04.514Z,93.94
2017-12-19T02:29:32.085Z,93.93
2017-12-19T02:31:59.627Z,93.82
2017-12-19T02:34:27.607Z,93.89
2017-12-19T02:36:55.186Z,94.16
2017-12-19T02:39:22.721Z,94.26
2017-12-19T02:41:50.295Z,94.23
2017-12-19T02:44:17.872Z,94.14
2017-12-19T02:46:45.439Z,94.18
2017-12-19T02:49:12.980Z,94.23
2017-12-19T02:51:41.023Z,94.27
2017-12-19T02:54:08.586Z,94.31
2017-12-19T02:56:36.146Z,94.31
2017-12-19T02:59:03.812Z,94.34
2017-12-19T03:01:31.381Z,94.36
2017-12-19T03:03:59.412Z,94.65
2017-12-19T03:06:26.966Z,94.96
2017-12-19T03:08:54.538Z,94.85
2017-12-19T03:11:22.118Z,94.70
2017-12-19T03:13:49.739Z,94.67
2017-12-19T03:16:17.600Z,94.64
2017-12-19T03:18:45.162Z,94.63
2017-12-19T03:21:12.701Z,94.60
2017-12-19T03:23:40.348Z,94.57
2017-12-19T03:26:07.882Z,94.53
2017-12-19T03:28:35.704Z,94.49
2017-12-19T03:31:03.286Z,94.46
2017-12-19T03:33:31.159Z,94.34
2017-12-19T03:35:58.776Z,94.26
2017-12-19T03:38:26.328Z,94.26
2017-12-19T03:40:54.234Z,94.22
2017-12-19T03:43:21.770Z,94.20
2017-12-19T03:45:49.314Z,94.25
2017-12-19T03:48:16.948Z,94.29
2017-12-19T03:50:44.512Z,94.54
2017-12-19T03:53:12.074Z,94.76
2017-12-19T03:55:39.626Z,94.69
2017-12-19T03:58:07.172Z,94.63
2017-12-19T04:00:34.736Z,94.66
2017-12-19T04:03:02.292Z,94.65
2017-12-19T04:05:30.136Z,94.62
2017-12-19T04:07:57.682Z,94.61
2017-12-19T04:10:25.260Z,94.86
2017-12-19T04:12:52.814Z,94.97
2017-12-19T04:15:20.418Z,94.80
2017-12-19T04:17:47.987Z,94.67
2017-12-19T04:20:15.535Z,94.62
2017-12-19T04:22:43.424Z,94.67
2017-12-19T04:25:10.964Z,94.69
2017-12-19T04:27:38.504Z,94.97
2017-12-19T04:30:06.161Z,95.08
2017-12-19T04:32:33.673Z,95.07
2017-12-19T04:35:01.254Z,94.97
2017-12-19T04:37:28.889Z,94.80
2017-12-19T04:39:56.747Z,94.71
2017-12-19T04:42:24.380Z,94.65
2017-12-19T04:44:51.940Z,94.52
2017-12-19T04:47:19.533Z,94.47
2017-12-19T04:49:47.119Z,94.52
2017-12-19T04:52:14.715Z,94.62
2017-12-19T04:54:42.272Z,94.69
2017-12-19T04:57:09.871Z,94.63
2017-12-19T04:59:37.430Z,94.54
2017-12-19T05:02:04.963Z,94.56
2017-12-19T05:04:32.690Z,94.58
2017-12-19T05:07:00.249Z,94.76
2017-12-19T05:09:28.195Z,94.68
2017-12-19T05:11:55.754Z,94.69
2017-12-19T05:14:23.370Z,94.65
2017-12-19T05:16:50.903Z,94.62
2017-12-19T05:19:18.436Z,94.63
2017-12-19T05:21:46.056Z,94.58
2017-12-19T05:24:13.652Z,94.43
2017-12-19T05:26:41.522Z,94.58
2017-12-19T05:29:09.124Z,94.72
2017-12-19T05:31:36.817Z,94.71
2017-12-19T05:34:04.396Z,94.70
2017-12-19T05:36:32.040Z,94.55
2017-12-19T05:38:59.603Z,94.51
2017-12-19T05:41:27.159Z,94.43
2017-12-19T05:43:54.718Z,94.37
2017-12-19T05:46:22.304Z,94.39
2017-12-19T05:48:49.851Z,94.39
2017-12-19T05:51:17.440Z,94.40
2017-12-19T05:53:45.046Z,94.40
2017-12-19T05:56:12.748Z,94.45
2017-12-19T05:58:40.388Z,94.51
2017-12-19T06:01:08.014Z,94.58
2017-12-19T06:03:35.690Z,94.62
2017-12-19T06:06:03.260Z,94.59
2017-12-19T06:08:30.844Z,94.54
2017-12-19T06:10:58.399Z,94.67
2017-12-19T06:13:25.935Z,94.67
2017-12-19T06:15:53.575Z,94.65
2017-12-19T06:18:21.130Z,94.74
2017-12-19T06:20:48.953Z,94.76
2017-12-19T06:23:16.495Z,94.78
2017-12-19T06:25:44.939Z,94.69
2017-12-19T06:28:12.494Z,94.62
2017-12-19T06:30:40.062Z,94.57
2017-12-19T06:33:08.153Z,94.55
2017-12-19T06:35:35.732Z,94.72
2017-12-19T06:38:03.277Z,94.78
2017-12-19T06:40:30.991Z,94.79
2017-12-19T06:42:58.534Z,94.82
2017-12-19T06:45:26.364Z,94.90
2017-12-19T06:47:53.905Z,94.97
2017-12-19T06:50:21.444Z,94.91
2017-12-19T06:52:49.013Z,94.75
2017-12-19T06:55:16.556Z,94.79
2017-12-19T06:57:44.126Z,94.52
2017-12-19T07:00:11.767Z,94.48
2017-12-19T07:02:39.761Z,94.65
2017-12-19T07:05:07.310Z,94.66
2017-12-19T07:07:34.866Z,94.77
2017-12-19T07:10:02.387Z,94.86
2017-12-19T07:12:29.890Z,94.74
2017-12-19T07:14:57.425Z,94.77
2017-12-19T07:17:24.950Z,94.99
2017-12-19T07:19:54.109Z,95.11
2017-12-19T07:22:21.692Z,95.03
2017-12-19T07:24:49.236Z,94.88
2017-12-19T07:27:17.028Z,94.88
2017-12-19T07:29:44.552Z,94.96
2017-12-19T07:32:12.088Z,95.03
2017-12-19T07:34:39.606Z,94.93
2017-12-19T07:37:07.106Z,94.87
2017-12-19T07:39:35.420Z,95.04
2017-12-19T07:42:02.977Z,95.15
2017-12-19T07:44:30.826Z,95.31
2017-12-19T07:46:58.356Z,95.19
2017-12-19T07:49:25.909Z,95.21
2017-12-19T07:51:53.573Z,95.20
2017-12-19T07:54:21.121Z,95.21
2017-12-19T07:56:49.312Z,95.26
2017-12-19T07:59:16.852Z,95.13
2017-12-19T08:01:44.403Z,95.17
2017-12-19T08:04:11.993Z,95.10
2017-12-19T08:06:39.553Z,95.10
2017-12-19T08:09:07.108Z,95.05
2017-12-19T08:11:34.677Z,95.00
2017-12-19T08:14:02.235Z,94.89
2017-12-19T08:16:29.805Z,94.90
2017-12-19T08:18:57.376Z,94.92
2017-12-19T08:21:24.985Z,94.89
2017-12-19T08:23:52.528Z,94.66
2017-12-19T08:26:20.459Z,94.73
2017-12-19T08:28:48.004Z,94.80
2017-12-19T08:31:15.545Z,94.78
2017-12-19T08:33:43.110Z,94.72
2017-12-19T08:36:10.655Z,94.69
2017-12-19T08:38:38.236Z,94.63
2017-12-19T08:41:05.770Z,94.65
2017-12-19T08:43:33.334Z,94.63
2017-12-19T08:46:00.916Z,94.55
2017-12-19T08:48:28.460Z,94.42
2017-12-19T08:50:56.270Z,94.33
2017-12-19T08:53:23.823Z,94.18
2017-12-19T08:55:51.363Z,94.04
2017-12-19T08:58:18.933Z,93.78
2017-12-19T09:00:46.507Z,93.80
2017-12-19T09:03:14.078Z,93.64
2017-12-19T09:05:41.680Z,93.64
2017-12-19T09:08:09.263Z,93.47
2017-12-19T09:10:36.827Z,93.39
2017-12-19T09:13:04.379Z,93.42
2017-12-19T09:15:31.981Z,93.41
2017-12-19T09:17:59.588Z,93.38
2017-12-19T09:20:27.143Z,93.30
2017-12-19T09:22:54.766Z,92.76
2017-12-19T09:25:22.412Z,92.70
2017-12-19T09:27:50.258Z,92.67
2017-12-19T09:30:17.816Z,92.61
2017-12-19T09:32:45.370Z,92.49
2017-12-19T09:35:12.893Z,92.61
2017-12-19T09:37:40.439Z,92.52
2017-12-19T09:40:08.364Z,92.52
2017-12-19T09:42:35.944Z,92.48
2017-12-19T09:45:03.481Z,92.38
2017-12-19T09:47:31.074Z,92.39
2017-12-19T09:49:58.886Z,92.25
2017-12-19T09:52:26.496Z,91.97
2017-12-19T09:54:54.039Z,91.98
2017-12-19T09:57:21.865Z,91.94
2017-12-19T09:59:49.430Z,91.92
2017-12-19T10:02:16.988Z,91.81
2017-12-19T10:04:44.598Z,91.50
2017-12-19T10:07:12.154Z,91.29
2017-12-19T10:09:39.770Z,91.34
2017-12-19T10:12:07.530Z,91.19
2017-12-19T10:14:35.505Z,90.97
2017-12-19T10:17:03.058Z,90.69
2017-12-19T10:19:30.620Z,90.66
2017-12-19T10:21:58.184Z,90.55
2017-12-19T10:24:25.737Z,90.50
2017-12-19T10:26:53.296Z,90.42
2017-12-19T10:29:20.850Z,90.27
2017-12-19T10:31:48.482Z,90.29
2017-12-19T10:34:16.027Z,90.17
2017-12-19T10:36:43.584Z,90.02
2017-12-19T10:39:11.140Z,89.78
2017-12-19T10:41:38.680Z,89.75
2017-12-19T10:44:06.229Z,89.24
2017-12-19T10:46:33.764Z,89.14
2017-12-19T10:49:01.366Z,89.13
2017-12-19T10:51:28.952Z,89.25
2017-12-19T10:53:56.490Z,89.12
2017-12-19T10:56:24.105Z,88.98
2017-12-19T10:58:51.642Z,89.06
2017-12-19T11:01:19.606Z,88.85
2017-12-19T11:03:47.171Z,88.90
2017-12-19T11:06:14.730Z,88.67
2017-12-19T11:08:42.336Z,88.20
2017-12-19T11:11:09.878Z,87.39
2017-12-19T11:13:37.464Z,87.68
2017-12-19T11:16:05.010Z,87.53
2017-12-19T11:18:32.560Z,87.60
2017-12-19T11:21:00.119Z,87.79
2017-12-19T11:23:27.649Z,87.96
2017-12-19T11:25:55.205Z,88.02
2017-12-19T11:28:22.766Z,88.06
2017-12-19T11:30:50.338Z,88.03
2017-12-19T11:33:17.875Z,87.40
2017-12-19T11:35:45.408Z,87.59
2017-12-19T11:38:12.954Z,87.78
2017-12-19T11:40:40.538Z,87.84
2017-12-19T11:43:08.133Z,87.74
2017-12-19T11:45:35.708Z,87.91
2017-12-19T11:48:03.308Z,88.01
2017-12-19T11:50:30.876Z,88.05
2017-12-19T11:52:58.445Z,87.91
2017-12-19T11:55:26.012Z,88.04
2017-12-19T11:57:53.576Z,87.44
2017-12-19T12:00:21.472Z,87.67
2017-12-19T12:02:49.008Z,87.57
2017-12-19T12:05:16.551Z,87.49
2017-12-19T12:07:44.136Z,87.36
2017-12-19T12:10:11.696Z,86.64
2017-12-19T12:12:39.296Z,86.59
2017-12-19T12:15:06.848Z,86.58
2017-12-19T12:17:34.420Z,86.17
2017-12-19T12:20:01.996Z,86.27
2017-12-19T12:22:29.549Z,86.05
2017-12-19T12:24:57.102Z,86.46
2017-12-19T12:27:24.637Z,86.38
2017-12-19T12:29:52.447Z,86.16
2017-12-19T12:32:20.013Z,86.60
2017-12-19T12:34:47.568Z,86.74
2017-12-19T12:37:15.172Z,86.73
2017-12-19T12:39:42.777Z,86.58
2017-12-19T12:42:10.347Z,86.80
2017-12-19T12:44:37.917Z,86.75
2017-12-19T12:47:05.783Z,86.94
2017-12-19T12:49:33.323Z,86.95
2017-12-19T12:52:00.844Z,86.96
2017-12-19T12:54:28.424Z,86.97
2017-12-19T12:56:55.962Z,87.22
2017-12-19T12:59:23.529Z,86.99
2017-12-19T13:01:51.094Z,87.20
2017-12-19T13:04:18.696Z,87.37
2017-12-19T13:06:46.282Z,87.32
2017-12-19T13:09:13.799Z,87.42
2017-12-19T13:11:41.419Z,87.63
2017-12-19T13:14:08.971Z,87.52
2017-12-19T13:16:36.530Z,87.72
2017-12-19T13:19:04.071Z,87.87
2017-12-19T13:21:31.610Z,87.74
2017-12-19T13:23:59.174Z,87.73
2017-12-19T13:26:26.787Z,87.82
2017-12-19T13:28:54.653Z,87.81
2017-12-19T13:31:22.208Z,87.87
2017-12-19T13:33:49.772Z,88.18
2017-12-19T13:36:17.405Z,88.28
2017-12-19T13:38:44.970Z,88.29
2017-12-19T13:41:12.961Z,88.40
2017-12-19T13:43:40.495Z,88.50
2017-12-19T13:46:08.036Z,88.32
2017-12-19T13:48:35.617Z,88.43
2017-12-19T13:51:03.163Z,88.55
2017-12-19T13:53:31.235Z,88.59
2017-12-19T13:55:58.798Z,88.71
2017-12-19T13:58:26.372Z,88.59
2017-12-19T14:00:53.984Z,88.72
2017-12-19T14:03:21.562Z,88.81
2017-12-19T14:05:49.159Z,88.43
2017-12-19T14:08:16.722Z,87.93
2017-12-19T14:10:44.312Z,87.76
2017-12-19T14:13:21.573Z,87.80
2017-12-19T14:15:49.148Z,87.58
2017-12-19T14:18:16.701Z,87.59
2017-12-19T14:20:44.239Z,87.80
2017-12-19T14:23:11.857Z,87.77
2017-12-19T14:25:39.412Z,87.80
2017-12-19T14:28:06.996Z,87.74
2017-12-19T14:30:34.616Z,87.80
2017-12-19T14:33:02.215Z,87.97
2017-12-19T14:35:29.781Z,88.12
2017-12-19T14:37:57.348Z,88.27
2017-12-19T14:40:24.916Z,88.55
2017-12-19T14:42:52.464Z,88.49
2017-12-19T14:45:20.029Z,88.54
2017-12-19T14:47:47.571Z,88.69
2017-12-19T14:50:15.162Z,88.58
2017-12-19T14:52:42.735Z,88.73
2017-12-19T14:55:10.295Z,88.82
2017-12-19T14:57:37.856Z,88.94
2017-12-19T15:00:05.465Z,89.04
2017-12-19T15:02:33.051Z,89.13
2017-12-19T15:05:00.632Z,89.17
2017-12-19T15:07:28.486Z,89.26
2017-12-19T15:09:56.055Z,89.34
2017-12-19T15:12:23.612Z,89.51
2017-12-19T15:14:51.189Z,89.65
2017-12-19T15:17:18.724Z,89.62
2017-12-19T15:19:46.682Z,89.73
2017-12-19T15:22:14.231Z,89.89
2017-12-19T15:24:41.802Z,89.93
2017-12-19T15:27:09.433Z,90.03
2017-12-19T15:29:37.000Z,90.00
2017-12-19T15:32:04.597Z,90.15
2017-12-19T15:34:32.182Z,90.26
2017-12-19T15:36:59.857Z,90.24
2017-12-19T15:39:27.448Z,90.30
2017-12-19T15:41:55.021Z,90.46
2017-12-19T15:44:22.632Z,90.37
2017-12-19T15:46:50.192Z,90.40
2017-12-19T15:49:17.798Z,90.47
2017-12-19T15:51:45.398Z,90.64
2017-12-19T15:54:13.004Z,90.73
2017-12-19T15:56:40.572Z,90.85
2017-12-19T15:59:08.156Z,90.88
2017-12-19T16:01:35.762Z,90.84
2017-12-19T16:04:03.329Z,90.85
2017-12-19T16:06:31.365Z,90.85
2017-12-19T16:08:58.984Z,90.86
2017-12-19T16:11:26.577Z,90.88
2017-12-19T16:13:54.176Z,90.94
2017-12-19T16:16:21.717Z,91.01
2017-12-19T16:18:49.356Z,91.09
2017-12-19T16:21:16.928Z,91.12
2017-12-19T16:23:44.511Z,91.13
2017-12-19T16:26:12.105Z,91.17
2017-12-19T16:28:39.724Z,91.22
2017-12-19T16:31:07.344Z,91.31
2017-12-19T16:33:34.943Z,91.48
2017-12-19T16:36:02.504Z,91.42
2017-12-19T16:38:30.081Z,91.43
2017-12-19T16:40:57.689Z,91.46
2017-12-19T16:43:25.282Z,91.56
2017-12-19T16:45:52.839Z,91.70
2017-12-19T16:48:20.446Z,91.75
2017-12-19T16:50:48.029Z,91.82
2017-12-19T16:53:15.584Z,91.76
2017-12-19T16:55:43.151Z,91.79
2017-12-19T16:58:10.708Z,91.79
2017-12-19T17:00:38.319Z,91.78
2017-12-19T17:03:05.866Z,91.79
2017-12-19T17:05:33.464Z,91.80
2017-12-19T17:08:01.053Z,91.80
2017-12-19T17:10:28.617Z,91.86
2017-12-19T17:12:56.248Z,91.87
2017-12-19T17:15:23.858Z,91.88
2017-12-19T17:17:51.435Z,91.90
2017-12-19T17:20:19.030Z,91.94
2017-12-19T17:22:46.618Z,92.05
2017-12-19T17:25:14.212Z,92.07
2017-12-19T17:27:41.776Z,92.08
2017-12-19T17:30:09.332Z,92.11
2017-12-19T17:32:36.940Z,92.10
2017-12-19T17:35:04.558Z,92.04
2017-12-19T17:37:32.133Z,92.02
2017-12-19T17:39:59.689Z,91.99
2017-12-19T17:42:27.276Z,92.04
2017-12-19T17:44:54.839Z,92.10
2017-12-19T17:47:22.433Z,92.18
2017-12-19T17:49:50.044Z,92.31
2017-12-19T17:52:17.636Z,92.26
2017-12-19T17:54:45.282Z,92.27
2017-12-19T17:57:12.859Z,92.24
2017-12-19T17:59:40.452Z,92.22
2017-12-19T18:02:08.024Z,92.16
2017-12-19T18:04:35.588Z,92.13
2017-12-19T18:07:03.166Z,92.02
2017-12-19T18:09:30.736Z,92.00
2017-12-19T18:11:58.335Z,91.98
2017-12-19T18:14:25.926Z,91.98
2017-12-19T18:16:53.526Z,91.91
2017-12-19T18:19:21.113Z,91.88
2017-12-19T18:21:48.691Z,91.88
2017-12-19T18:24:16.307Z,91.96
2017-12-19T18:26:43.932Z,91.89
2017-12-19T18:29:11.545Z,91.94
2017-12-19T18:31:39.168Z,91.99
2017-12-19T18:34:06.725Z,91.98
2017-12-19T18:36:34.364Z,91.93
2017-12-19T18:39:01.971Z,91.97
2017-12-19T18:41:29.551Z,92.03
2017-12-19T18:43:57.125Z,92.04
2017-12-19T18:46:24.722Z,92.06
2017-12-19T18:48:52.277Z,91.93
2017-12-19T18:51:19.844Z,91.96
2017-12-19T18:53:47.408Z,91.99
2017-12-19T18:56:14.971Z,91.95
2017-12-19T18:58:42.588Z,91.96
2017-12-19T19:01:10.187Z,91.97
2017-12-19T19:03:37.834Z,91.98
2017-12-19T19:06:05.391Z,92.12
2017-12-19T19:08:32.901Z,92.09
2017-12-19T19:11:00.522Z,92.05
2017-12-19T19:13:28.134Z,92.12
2017-12-19T19:15:55.817Z,92.21
2017-12-19T19:18:23.437Z,92.28
2017-12-19T19:20:51.038Z,92.24
2017-12-19T19:23:18.645Z,92.39
2017-12-19T19:25:46.214Z,92.40
2017-12-19T19:28:13.812Z,92.43
2017-12-19T19:32:41.232Z,92.35
2017-12-19T19:35:14.957Z,92.38
2017-12-19T19:37:50.096Z,92.42
2017-12-19T19:40:23.367Z,92.46
2017-12-19T19:43:01.576Z,92.53
2017-12-19T19:45:34.786Z,92.53
2017-12-19T19:50:46.079Z,92.52
2017-12-19T19:53:25.626Z,92.53
2017-12-19T19:55:57.580Z,92.57
2017-12-19T19:58:33.540Z,92.57
2017-12-19T20:01:09.195Z,92.57
2017-12-19T20:03:43.505Z,92.49
2017-12-19T20:06:23.875Z,92.52
2017-12-19T20:09:00.293Z,92.49
2017-12-19T20:11:33.853Z,92.64
2017-12-19T20:14:06.943Z,92.57
2017-12-19T20:16:43.375Z,92.67
2017-12-19T20:19:18.003Z,92.36
2017-12-19T20:24:38.964Z,92.44
2017-12-19T20:27:13.816Z,92.42
2017-12-19T20:29:52.727Z,92.29
2017-12-19T20:32:27.696Z,92.26
2017-12-19T20:35:01.697Z,92.34
2017-12-19T20:37:36.024Z,92.36
2017-12-19T20:40:14.517Z,92.50
2017-12-19T20:42:49.649Z,92.75
2017-12-19T20:45:28.491Z,92.90
2017-12-19T20:48:09.157Z,93.27
2017-12-19T20:50:51.721Z,93.43
2017-12-19T20:53:25.472Z,93.77
2017-12-19T20:56:00.911Z,94.06
2017-12-19T20:58:41.266Z,94.38
2017-12-19T21:01:14.443Z,94.44
2017-12-19T21:03:49.921Z,94.70
2017-12-19T21:06:25.775Z,94.80
2017-12-19T21:08:57.097Z,94.97
2017-12-19T21:11:36.835Z,95.03
2017-12-19T21:14:12.585Z,95.13
2017-12-19T21:16:46.644Z,95.25
2017-12-19T21:19:25.772Z,95.52
2017-12-19T21:22:00.043Z,95.61
2017-12-19T21:24:34.928Z,95.66
2017-12-19T21:29:49.746Z,95.89
2017-12-19T21:32:28.352Z,95.88
2017-12-19T21:35:00.886Z,95.97
2017-12-19T21:37:32.261Z,95.98
2017-12-19T21:40:05.164Z,96.04
2017-12-19T21:42:39.220Z,95.98
2017-12-19T21:45:14.415Z,96.09
2017-12-19T21:47:45.864Z,96.11
2017-12-19T21:50:20.377Z,96.03
2017-12-19T21:52:52.671Z,96.04
2017-12-19T21:55:26.260Z,96.07
2017-12-19T21:57:58.428Z,96.10
2017-12-19T22:00:32.349Z,96.04
2017-12-19T22:03:06.142Z,96.09
2017-12-19T22:05:39.445Z,96.01
2017-12-19T22:08:14.379Z,96.06
2017-12-19T22:10:46.439Z,95.80
2017-12-19T22:13:22.900Z,95.61
2017-12-19T22:16:05.528Z,95.60
2017-12-19T22:18:37.192Z,95.46
2017-12-19T22:21:09.426Z,95.47
2017-12-19T22:23:46.233Z,95.36
2017-12-19T22:26:21.352Z,95.36
2017-12-19T22:28:56.181Z,95.43
2017-12-19T22:31:36.877Z,95.45
2017-12-19T22:34:10.234Z,95.28
2017-12-19T22:36:43.112Z,95.26
2017-12-19T22:39:15.280Z,95.18
2017-12-19T22:41:54.300Z,95.13
2017-12-19T22:44:29.092Z,95.17
2017-12-19T22:47:16.212Z,95.17
2017-12-19T22:49:49.127Z,95.21
2017-12-19T22:52:21.270Z,95.12
2017-12-19T22:54:56.410Z,95.08
2017-12-19T22:57:30.235Z,95.07
2017-12-19T23:00:07.213Z,95.08
2017-12-19T23:02:39.470Z,95.16
2017-12-19T23:05:12.878Z,95.09
2017-12-19T23:07:43.716Z,95.16
2017-12-19T23:10:19.261Z,95.09
2017-12-19T23:12:51.943Z,95.08
2017-12-19T23:15:32.814Z,95.17
2017-12-19T23:18:09.478Z,95.10
2017-12-19T23:20:44.422Z,95.10
2017-12-19T23:23:21.100Z,95.15
2017-12-19T23:25:53.164Z,95.11
2017-12-19T23:28:37.404Z,95.13
2017-12-19T23:31:13.648Z,95.35
2017-12-19T23:33:50.129Z,95.46
2017-12-19T23:36:30.069Z,95.72
2017-12-19T23:39:08.784Z,95.92
2017-12-19T23:41:45.149Z,96.22
2017-12-19T23:44:22.390Z,96.47
2017-12-19T23:46:58.114Z,96.63
2017-12-19T23:49:32.496Z,96.85
2017-12-19T23:52:05.586Z,96.93
2017-12-19T23:54:39.770Z,97.08
2017-12-19T23:57:16.480Z,97.13
